Time;durP1;ratioP1;P1;durP2;ratioP2;P2;SDS_P1;SDS_P2;PMS_P1;PMS_P2;Temp;Humidity;BMP_temperature;BMP_pressure;BME280_temperature;BME280_humidity;BME280_pressure;Samples;Min_cycle;Max_cycle;Signal;HPM_P1;HPM_P2
2022/09/25 00:00:28;;;;;;;10.30;3.03;;;10.30;99.90;;;;;;4767805;30;20044;-65
2022/09/25 00:02:54;;;;;;;14.38;2.70;;;10.30;99.90;;;;;;4766580;30;20051;-64
2022/09/25 00:05:20;;;;;;;10.90;2.95;;;10.30;99.90;;;;;;4767873;30;20117;-65
2022/09/25 00:07:46;;;;;;;9.50;2.53;;;10.30;99.90;;;;;;4767501;30;20060;-65
2022/09/25 00:10:11;;;;;;;8.45;2.45;;;10.20;99.90;;;;;;4767485;30;20059;-65
2022/09/25 00:12:37;;;;;;;10.35;2.45;;;10.20;99.90;;;;;;4768057;30;20082;-65
2022/09/25 00:15:04;;;;;;;11.88;3.50;;;10.20;99.90;;;;;;4767345;30;20468;-64
2022/09/25 00:17:30;;;;;;;9.57;2.90;;;10.20;99.90;;;;;;4767298;30;20062;-65
2022/09/25 00:19:55;;;;;;;9.05;2.40;;;10.20;99.90;;;;;;4767293;30;20142;-65
2022/09/25 00:22:23;;;;;;;8.13;2.50;;;10.20;99.90;;;;;;4766894;30;20044;-65
2022/09/25 00:24:49;;;;;;;9.85;2.33;;;10.20;99.90;;;;;;4766949;30;20070;-65
2022/09/25 00:27:17;;;;;;;9.23;2.80;;;10.20;99.90;;;;;;4766452;30;20127;-65
2022/09/25 00:29:43;;;;;;;9.30;2.42;;;10.10;99.90;;;;;;4752243;30;20135;-65
2022/09/25 00:32:10;;;;;;;10.60;2.55;;;10.10;99.90;;;;;;4766185;30;20098;-65
2022/09/25 00:34:38;;;;;;;8.85;2.50;;;10.10;99.90;;;;;;4767864;30;20059;-64
2022/09/25 00:37:04;;;;;;;8.85;2.40;;;10.10;99.90;;;;;;4765515;30;20125;-65
2022/09/25 00:39:30;;;;;;;8.60;2.40;;;10.10;99.90;;;;;;4766901;30;20157;-64
2022/09/25 00:41:56;;;;;;;9.13;2.85;;;10.20;99.90;;;;;;4751058;30;20579;-64
2022/09/25 00:44:55;;;;;;;11.20;2.50;;;10.10;99.90;;;;;;4764597;30;20104;-64
2022/09/25 00:47:27;;;;;;;11.95;3.20;;;10.10;99.90;;;;;;4760477;30;20095;-65
2022/09/25 00:49:55;;;;;;;11.05;2.40;;;10.10;99.90;;;;;;4766328;30;20052;-65
2022/09/25 00:52:23;;;;;;;7.57;2.80;;;10.10;99.90;;;;;;4766225;30;20051;-65
2022/09/25 00:55:02;;;;;;;9.10;2.60;;;10.00;99.90;;;;;;4751856;30;20074;-65
2022/09/25 00:57:31;;;;;;;8.40;2.67;;;10.10;99.90;;;;;;4767607;30;20043;-64
2022/09/25 01:00:01;;;;;;;9.50;2.63;;;10.00;99.90;;;;;;4780904;29;20062;-68
2022/09/25 01:02:31;;;;;;;8.55;2.20;;;10.00;99.90;;;;;;4765539;30;20047;-65
2022/09/25 01:05:02;;;;;;;7.85;2.35;;;10.00;99.90;;;;;;4766366;30;20066;-68
2022/09/25 01:07:28;;;;;;;9.18;2.63;;;10.00;99.90;;;;;;4766543;30;20120;-64
2022/09/25 01:09:58;;;;;;;8.07;2.30;;;10.00;99.90;;;;;;4767449;30;20055;-64
2022/09/25 01:12:24;;;;;;;9.98;2.22;;;10.00;99.90;;;;;;4766759;30;20063;-64
2022/09/25 01:14:50;;;;;;;11.35;2.45;;;10.00;99.90;;;;;;4766125;30;20048;-65
2022/09/25 01:17:49;;;;;;;13.02;2.80;;;10.00;99.90;;;;;;4736675;30;20422;-64
2022/09/25 01:20:33;;;;;;;8.93;2.60;;;10.00;99.90;;;;;;4778665;29;20075;-64
2022/09/25 01:23:08;;;;;;;10.68;2.53;;;9.90;99.90;;;;;;4767360;30;20060;-68
2022/09/25 01:25:59;;;;;;;;;;;9.90;99.90;;;;;;4766919;30;20060;-64
2022/09/25 01:29:06;;;;;;;8.05;2.47;;;9.90;99.90;;;;;;4765681;30;19941;-65
2022/09/25 01:32:19;;;;;;;9.23;3.45;;;9.90;99.90;;;;;;4800943;29;20129;-64
2022/09/25 01:34:44;;;;;;;13.27;2.85;;;9.90;99.90;;;;;;4799696;29;20062;-65
2022/09/25 01:37:23;;;;;;;10.77;2.55;;;9.90;99.90;;;;;;4773174;29;20056;-64
2022/09/25 01:40:06;;;;;;;9.48;2.85;;;9.80;99.90;;;;;;4765974;30;20052;-64
2022/09/25 01:43:01;;;;;;;8.95;2.72;;;9.80;99.90;;;;;;4766119;30;20054;-64
2022/09/25 01:45:56;;;;;;;11.70;3.03;;;9.80;99.90;;;;;;4766741;29;20064;-64
2022/09/25 01:48:27;;;;;;;6.35;2.40;;;9.80;99.90;;;;;;4754616;30;20060;-65
2022/09/25 01:51:07;;;;;;;7.90;2.05;;;9.80;99.90;;;;;;4766647;30;20124;-65
2022/09/25 01:53:43;;;;;;;10.73;2.83;;;9.80;99.90;;;;;;4770528;30;20052;-65
2022/09/25 01:56:32;;;;;;;11.65;2.85;;;9.80;99.90;;;;;;4768861;30;20463;-65
2022/09/25 01:59:43;;;;;;;11.80;2.63;;;9.80;99.90;;;;;;4763246;30;20525;-64
2022/09/25 02:02:13;;;;;;;9.18;2.47;;;9.70;99.90;;;;;;4772044;29;20059;-65
2022/09/25 02:04:53;;;;;;;6.45;2.42;;;9.80;99.90;;;;;;4769078;30;20055;-65
2022/09/25 02:07:25;;;;;;;11.00;2.45;;;9.90;99.90;;;;;;4768721;30;20052;-65
2022/09/25 02:09:56;;;;;;;12.50;2.80;;;9.80;99.90;;;;;;4770114;30;20063;-65
2022/09/25 02:12:39;;;;;;;12.27;2.58;;;9.70;99.90;;;;;;4766298;30;21525;-65
2022/09/25 02:15:19;;;;;;;13.50;2.92;;;9.70;99.90;;;;;;4768988;30;20055;-68
2022/09/25 02:20:40;;;;;;;10.15;2.50;;;9.70;99.90;;;;;;4768596;30;20059;-65
2022/09/25 02:23:22;;;;;;;10.55;2.85;;;9.70;99.90;;;;;;4768399;30;20475;-68
2022/09/25 02:26:02;;;;;;;7.45;2.72;;;9.70;99.90;;;;;;4769509;30;20450;-64
2022/09/25 02:28:27;;;;;;;8.05;2.28;;;9.70;99.90;;;;;;4769295;30;20131;-63
2022/09/25 02:30:56;;;;;;;11.40;2.60;;;9.60;99.90;;;;;;4768562;30;20130;-64
2022/09/25 02:33:23;;;;;;;14.30;2.80;;;9.70;99.90;;;;;;4769307;30;20101;-65
2022/09/25 02:35:48;;;;;;;6.57;2.70;;;9.60;99.90;;;;;;4769879;30;20465;-64
2022/09/25 02:38:15;;;;;;;8.40;2.47;;;9.60;99.90;;;;;;4753245;30;20100;-65
2022/09/25 02:40:44;;;;;;;9.15;2.50;;;9.50;99.90;;;;;;4769291;30;20051;-64
2022/09/25 02:43:24;;;;;;;8.93;2.70;;;9.50;99.90;;;;;;4768245;30;20056;-68
2022/09/25 02:46:12;;;;;;;9.27;2.30;;;9.60;99.90;;;;;;4764545;30;20553;-64
2022/09/25 02:49:07;;;;;;;9.07;2.67;;;9.60;99.90;;;;;;4756464;30;20055;-65
2022/09/25 02:51:43;;;;;;;;;;;9.50;99.90;;;;;;4753788;30;20398;-66
2022/09/25 02:54:11;;;;;;;10.10;2.60;;;9.50;99.90;;;;;;4763389;30;20455;-64
2022/09/25 02:56:46;;;;;;;7.55;2.60;;;9.50;99.90;;;;;;4780046;30;20058;-64
2022/09/25 02:59:20;;;;;;;10.10;2.53;;;9.50;99.90;;;;;;4781425;29;20579;-68
2022/09/25 03:01:46;;;;;;;9.02;2.72;;;9.50;99.90;;;;;;4778112;30;20062;-65
2022/09/25 03:04:15;;;;;;;13.25;2.75;;;9.50;99.90;;;;;;4778071;29;20077;-67
2022/09/25 03:06:41;;;;;;;9.10;2.55;;;9.50;99.90;;;;;;4780057;29;20104;-64
2022/09/25 03:09:09;;;;;;;13.35;3.22;;;9.50;99.90;;;;;;4782744;29;20062;-65
2022/09/25 03:11:41;;;;;;;9.40;2.60;;;9.50;99.90;;;;;;4777575;29;20421;-64
2022/09/25 03:14:07;;;;;;;8.70;2.60;;;9.40;99.90;;;;;;4783392;29;20456;-64
2022/09/25 03:16:52;;;;;;;7.28;2.30;;;9.50;99.90;;;;;;4778610;29;20087;-65
2022/09/25 03:19:20;;;;;;;;;;;9.40;99.90;;;;;;4781906;29;20055;-64
2022/09/25 03:21:46;;;;;;;8.45;2.60;;;9.50;99.90;;;;;;4769943;30;19937;-64
2022/09/25 03:24:13;;;;;;;12.80;2.75;;;9.40;99.90;;;;;;4767586;30;20059;-64
2022/09/25 03:26:39;;;;;;;7.25;2.58;;;9.40;99.90;;;;;;4764502;30;20258;-64
2022/09/25 03:29:05;;;;;;;7.88;2.67;;;9.40;99.90;;;;;;4772998;30;20460;-64
2022/09/25 03:31:32;;;;;;;7.68;2.80;;;9.40;99.90;;;;;;4773053;29;20052;-65
2022/09/25 03:33:59;;;;;;;6.72;2.33;;;9.40;99.90;;;;;;4761577;30;20059;-64
2022/09/25 03:36:27;;;;;;;13.27;2.88;;;9.50;99.90;;;;;;4775476;29;20405;-65
2022/09/25 03:38:57;;;;;;;6.88;3.08;;;9.50;99.90;;;;;;4779657;29;20056;-65
2022/09/25 03:41:25;;;;;;;10.40;2.88;;;9.50;99.90;;;;;;4772535;30;20054;-64
2022/09/25 03:43:52;;;;;;;9.52;2.83;;;9.50;99.90;;;;;;4768157;30;20047;-65
2022/09/25 03:46:27;;;;;;;10.52;2.70;;;9.50;99.90;;;;;;4781302;29;20051;-67
2022/09/25 03:48:54;;;;;;;10.10;3.47;;;9.50;99.90;;;;;;4764043;30;20129;-64
2022/09/25 03:51:20;;;;;;;9.82;2.92;;;9.50;99.90;;;;;;4781533;30;20044;-68
2022/09/25 03:53:47;;;;;;;11.38;2.90;;;9.50;99.90;;;;;;4768326;29;20066;-65
2022/09/25 03:56:16;;;;;;;6.15;2.58;;;9.50;99.90;;;;;;4767501;30;20052;-65
2022/09/25 03:58:42;;;;;;;8.65;2.58;;;9.50;99.90;;;;;;4768069;30;20374;-65
2022/09/25 04:01:09;;;;;;;10.98;3.22;;;9.50;99.90;;;;;;4767170;30;20399;-64
2022/09/25 04:03:36;;;;;;;9.35;2.90;;;9.40;99.90;;;;;;4767567;30;20056;-65
2022/09/25 04:06:06;;;;;;;10.70;2.67;;;9.40;99.90;;;;;;4752069;30;20055;-65
2022/09/25 04:08:33;;;;;;;7.80;2.58;;;9.50;99.90;;;;;;4767859;30;20063;-64
2022/09/25 04:11:00;;;;;;;9.57;2.70;;;9.40;99.90;;;;;;4768204;30;20575;-64
2022/09/25 04:13:31;;;;;;;9.63;2.42;;;9.40;99.90;;;;;;4766737;30;20044;-64
2022/09/25 04:15:59;;;;;;;9.18;2.60;;;9.40;99.90;;;;;;4767632;30;20056;-64
2022/09/25 04:18:30;;;;;;;5.32;2.40;;;9.40;99.90;;;;;;4766953;30;20066;-64
2022/09/25 04:20:57;;;;;;;6.90;2.83;;;9.30;99.90;;;;;;4752959;30;20071;-64
2022/09/25 04:23:24;;;;;;;5.22;2.10;;;9.30;99.90;;;;;;4767258;30;20086;-68
2022/09/25 04:25:49;;;;;;;7.00;2.67;;;9.30;99.90;;;;;;4767838;30;20154;-65
2022/09/25 04:28:15;;;;;;;9.85;2.70;;;9.30;99.90;;;;;;4767798;30;20466;-64
2022/09/25 04:30:41;;;;;;;8.88;2.65;;;9.20;99.90;;;;;;4766180;30;20055;-64
2022/09/25 04:35:51;;;;;;;10.48;3.30;;;9.20;99.90;;;;;;4780378;29;20134;-64
2022/09/25 04:38:17;;;;;;;8.73;2.85;;;9.20;99.90;;;;;;4766824;30;20139;-64
2022/09/25 04:40:44;;;;;;;9.63;3.30;;;9.10;99.90;;;;;;4766370;30;20064;-65
2022/09/25 04:43:10;;;;;;;10.80;2.90;;;9.10;99.90;;;;;;4765720;30;20047;-65
2022/09/25 04:45:36;;;;;;;6.43;2.60;;;9.20;99.90;;;;;;4762371;30;20078;-65
2022/09/25 04:48:03;;;;;;;8.43;3.15;;;9.10;99.90;;;;;;4766958;30;20060;-65
2022/09/25 04:50:30;;;;;;;6.93;3.13;;;9.00;99.90;;;;;;4751399;30;20083;-64
2022/09/25 04:52:56;;;;;;;10.73;3.10;;;9.00;99.90;;;;;;4766597;30;20423;-65
2022/09/25 04:55:23;;;;;;;10.60;2.75;;;9.00;99.90;;;;;;4766461;30;20059;-64
2022/09/25 04:57:54;;;;;;;5.55;2.65;;;9.00;99.90;;;;;;4767094;30;20481;-65
2022/09/25 05:00:20;;;;;;;10.57;2.92;;;9.00;99.90;;;;;;4751912;30;21134;-64
2022/09/25 05:02:46;;;;;;;9.48;2.83;;;8.90;99.90;;;;;;4765804;30;20063;-64
2022/09/25 05:05:13;;;;;;;7.85;2.60;;;8.90;99.90;;;;;;4765918;30;20645;-64
2022/09/25 05:07:38;;;;;;;5.57;2.40;;;8.90;99.90;;;;;;4765926;30;20059;-65
2022/09/25 05:10:07;;;;;;;8.50;2.58;;;8.90;99.90;;;;;;4754254;30;20055;-64
2022/09/25 05:12:34;;;;;;;7.28;2.85;;;8.90;99.90;;;;;;4766084;30;20055;-64
2022/09/25 05:15:01;;;;;;;9.77;2.92;;;8.90;99.90;;;;;;4765468;30;20108;-64
2022/09/25 05:17:27;;;;;;;5.82;2.50;;;8.90;99.90;;;;;;4766068;30;20063;-64
2022/09/25 05:19:52;;;;;;;8.52;2.50;;;8.90;99.90;;;;;;4765556;30;20047;-64
2022/09/25 05:22:18;;;;;;;8.52;3.53;;;8.90;99.90;;;;;;4766024;30;20134;-64
2022/09/25 05:24:44;;;;;;;5.55;2.22;;;8.90;99.90;;;;;;4755997;30;20059;-64
2022/09/25 05:27:10;;;;;;;7.18;2.30;;;8.80;99.90;;;;;;4768699;30;20079;-64
2022/09/25 05:29:36;;;;;;;5.82;2.67;;;8.80;99.90;;;;;;4769044;30;20406;-64
2022/09/25 05:32:01;;;;;;;7.32;2.65;;;8.90;99.90;;;;;;4770821;30;20048;-65
2022/09/25 05:34:27;;;;;;;6.15;2.08;;;8.80;99.90;;;;;;4770676;30;20424;-64
2022/09/25 05:36:53;;;;;;;9.88;2.92;;;8.80;99.90;;;;;;4772873;30;20052;-64
2022/09/25 05:39:18;;;;;;;5.80;2.50;;;8.90;99.90;;;;;;4770722;30;20436;-64
2022/09/25 05:41:44;;;;;;;9.27;2.75;;;8.90;99.90;;;;;;4770191;30;20079;-64
2022/09/25 05:44:10;;;;;;;7.93;2.70;;;8.90;99.90;;;;;;4740278;30;20091;-64
2022/09/25 05:46:36;;;;;;;9.15;2.70;;;8.90;99.90;;;;;;4769170;30;20085;-64
2022/09/25 05:49:02;;;;;;;5.75;2.38;;;8.80;99.90;;;;;;4769894;30;20473;-64
2022/09/25 05:51:28;;;;;;;12.57;4.28;;;8.90;99.90;;;;;;4754032;30;20051;-63
2022/09/25 05:53:54;;;;;;;6.97;2.63;;;8.90;99.90;;;;;;4753773;30;20647;-65
2022/09/25 05:56:23;;;;;;;10.63;3.10;;;8.90;99.90;;;;;;4769224;30;20055;-64
2022/09/25 05:58:50;;;;;;;8.40;2.58;;;8.90;99.90;;;;;;4767836;30;20051;-64
2022/09/25 06:01:16;;;;;;;14.32;3.53;;;9.00;99.90;;;;;;4768418;30;20135;-66
2022/09/25 06:03:41;;;;;;;5.93;2.75;;;9.00;99.90;;;;;;4767794;30;20097;-65
2022/09/25 06:06:07;;;;;;;5.97;2.50;;;9.00;99.90;;;;;;4783778;29;20063;-65
2022/09/25 06:08:36;;;;;;;7.70;2.83;;;9.10;99.90;;;;;;4768467;30;20047;-65
2022/09/25 06:11:04;;;;;;;6.88;2.90;;;9.10;99.90;;;;;;4769001;30;20060;-65
2022/09/25 06:13:33;;;;;;;7.03;2.92;;;9.10;99.90;;;;;;4769555;30;20121;-64
2022/09/25 06:15:59;;;;;;;8.60;3.38;;;9.10;99.90;;;;;;4754175;30;20086;-65
2022/09/25 06:18:25;;;;;;;8.18;2.33;;;9.10;99.90;;;;;;4769573;30;20090;-65
2022/09/25 06:20:59;;;;;;;7.65;3.05;;;9.20;99.90;;;;;;4768032;30;20048;-65
2022/09/25 06:23:25;;;;;;;7.13;3.00;;;9.20;99.90;;;;;;4768374;30;20521;-65
2022/09/25 06:25:50;;;;;;;8.55;2.60;;;9.30;99.90;;;;;;4769317;30;20126;-65
2022/09/25 06:28:16;;;;;;;6.63;2.40;;;9.30;99.90;;;;;;4768780;30;20051;-65
2022/09/25 06:30:41;;;;;;;5.57;2.60;;;9.30;99.90;;;;;;4767240;30;20078;-65
2022/09/25 06:33:12;;;;;;;5.40;2.33;;;9.40;99.90;;;;;;4769065;30;20048;-65
2022/09/25 06:35:45;;;;;;;9.95;2.63;;;9.40;99.90;;;;;;4768231;30;20438;-65
2022/09/25 06:38:12;;;;;;;8.52;2.63;;;9.50;99.90;;;;;;4768728;30;20074;-65
2022/09/25 06:40:39;;;;;;;6.13;2.72;;;9.50;99.90;;;;;;4768388;30;20052;-65
2022/09/25 06:43:08;;;;;;;8.35;2.72;;;9.50;99.90;;;;;;4767716;30;20051;-65
2022/09/25 06:45:34;;;;;;;7.78;2.60;;;9.60;99.90;;;;;;4768383;29;20063;-65
2022/09/25 06:48:05;;;;;;;5.13;2.10;;;9.60;99.90;;;;;;4769059;30;20091;-64
2022/09/25 06:50:51;;;;;;;9.13;2.40;;;9.70;99.90;;;;;;4769088;30;20051;-65
2022/09/25 06:53:19;;;;;;;6.05;2.58;;;9.80;99.90;;;;;;4762481;30;20083;-66
2022/09/25 06:55:46;;;;;;;8.02;2.55;;;9.80;99.90;;;;;;4766727;30;20071;-65
2022/09/25 06:58:14;;;;;;;6.30;2.33;;;9.90;99.90;;;;;;4769051;30;20052;-67
2022/09/25 07:00:40;;;;;;;5.53;2.22;;;10.00;99.90;;;;;;4753356;30;20253;-65
2022/09/25 07:05:50;;;;;;;6.75;2.10;;;10.20;99.90;;;;;;4777641;29;20920;-65
2022/09/25 07:08:19;;;;;;;6.07;2.13;;;10.40;99.90;;;;;;4769164;30;20059;-65
2022/09/25 07:10:54;;;;;;;8.48;2.70;;;10.50;99.90;;;;;;4767415;30;20055;-68
2022/09/25 07:13:23;;;;;;;4.90;2.28;;;10.50;99.90;;;;;;4768828;30;20083;-65
2022/09/25 07:16:04;;;;;;;9.20;2.17;;;10.60;99.90;;;;;;4768103;30;20051;-65
2022/09/25 07:18:30;;;;;;;7.28;2.55;;;10.80;99.90;;;;;;4778445;30;20059;-63
2022/09/25 07:21:09;;;;;;;7.20;2.50;;;10.90;99.90;;;;;;4765068;30;20108;-63
2022/09/25 07:23:35;;;;;;;7.93;2.42;;;11.00;99.90;;;;;;4764442;30;20056;-63
2022/09/25 07:26:22;;;;;;;5.72;2.35;;;11.20;99.90;;;;;;4776039;30;20094;-64
2022/09/25 07:29:03;;;;;;;6.43;2.22;;;11.40;99.90;;;;;;4768153;30;20497;-67
2022/09/25 07:31:31;;;;;;;7.28;1.67;;;11.50;99.90;;;;;;4752764;30;20513;-65
2022/09/25 07:34:01;;;;;;;7.30;1.80;;;11.50;99.90;;;;;;4763858;30;20067;-65
2022/09/25 07:36:27;;;;;;;11.25;1.92;;;11.60;99.90;;;;;;4754087;30;20054;-65
2022/09/25 07:38:54;;;;;;;6.03;1.80;;;11.70;99.90;;;;;;4753129;30;20060;-66
2022/09/25 07:41:21;;;;;;;7.45;2.33;;;11.80;99.90;;;;;;4765489;30;20152;-64
2022/09/25 07:43:55;;;;;;;5.75;2.03;;;11.80;99.90;;;;;;4782595;29;20083;-65
2022/09/25 07:46:20;;;;;;;5.30;2.03;;;11.90;99.90;;;;;;4771134;29;20406;-65
2022/09/25 07:48:48;;;;;;;7.47;1.80;;;12.00;99.90;;;;;;4765326;30;20055;-65
2022/09/25 07:51:14;;;;;;;6.28;1.58;;;12.40;99.90;;;;;;4772307;30;20074;-66
2022/09/25 07:53:41;;;;;;;7.32;1.98;;;;;;;;;;4767074;30;20048;-65
2022/09/25 07:56:09;;;;;;;5.32;1.48;;;13.90;99.90;;;;;;4765658;30;20178;-64
2022/09/25 07:58:35;;;;;;;5.53;1.25;;;16.80;99.90;;;;;;4768346;30;20051;-63
2022/09/25 08:01:04;;;;;;;5.65;1.90;;;18.50;99.90;;;;;;4776351;29;20055;-64
2022/09/25 08:03:30;;;;;;;4.60;1.52;;;19.70;99.90;;;;;;4782576;30;20122;-63
2022/09/25 08:05:57;;;;;;;5.68;1.10;;;20.60;99.90;;;;;;4767596;30;20143;-63
2022/09/25 08:08:23;;;;;;;4.05;1.27;;;21.30;99.90;;;;;;4766817;30;20059;-63
2022/09/25 08:10:50;;;;;;;6.55;1.15;;;22.00;97.90;;;;;;4770231;30;20092;-63
2022/09/25 08:13:19;;;;;;;5.80;1.30;;;22.50;96.50;;;;;;4777918;29;20058;-64
2022/09/25 08:15:45;;;;;;;4.95;1.30;;;22.80;97.60;;;;;;4775379;29;20127;-63
2022/09/25 08:18:11;;;;;;;5.60;1.45;;;22.90;96.70;;;;;;4756264;30;20181;-64
2022/09/25 08:20:39;;;;;;;4.72;1.10;;;23.50;95.60;;;;;;4781440;30;20133;-64
2022/09/25 08:23:05;;;;;;;4.40;1.38;;;23.90;95.00;;;;;;4781240;29;20490;-63
2022/09/25 08:25:31;;;;;;;5.32;1.60;;;24.30;94.90;;;;;;4757645;30;20113;-65
2022/09/25 08:27:56;;;;;;;3.55;1.25;;;24.60;93.90;;;;;;4775945;30;20771;-65
2022/09/25 08:30:22;;;;;;;6.50;1.55;;;24.20;93.90;;;;;;4769350;29;20048;-63
2022/09/25 08:32:47;;;;;;;4.45;1.40;;;23.30;95.00;;;;;;4782879;29;20069;-65
2022/09/25 08:35:13;;;;;;;3.20;1.10;;;22.20;94.90;;;;;;4777545;29;20043;-65
2022/09/25 08:37:41;;;;;;;5.15;1.48;;;21.00;96.40;;;;;;4774795;29;20517;-64
2022/09/25 08:40:16;;;;;;;5.53;1.60;;;19.80;99.20;;;;;;4780955;29;20060;-64
2022/09/25 08:42:44;;;;;;;5.43;1.50;;;18.60;99.90;;;;;;4772486;30;20055;-63
2022/09/25 08:51:20;;;;;;;6.63;1.48;;;16.30;99.90;;;;;;4771332;29;20082;-64
2022/09/25 08:53:47;;;;;;;6.18;1.20;;;15.60;99.90;;;;;;4766799;29;20123;-64
2022/09/25 08:56:14;;;;;;;2.70;0.93;;;15.30;99.90;;;;;;4763857;30;20059;-64
2022/09/25 08:58:49;;;;;;;2.70;1.10;;;14.90;99.90;;;;;;4781851;29;20108;-65
2022/09/25 09:01:23;;;;;;;4.22;1.20;;;14.70;99.90;;;;;;4772981;30;20411;-64
2022/09/25 09:04:04;;;;;;;5.68;1.40;;;14.50;99.90;;;;;;4785609;29;20054;-65
2022/09/25 09:06:31;;;;;;;2.70;0.80;;;14.40;99.90;;;;;;4765941;30;20055;-63
2022/09/25 09:09:04;;;;;;;5.15;1.48;;;14.30;99.90;;;;;;4772645;29;20063;-64
2022/09/25 09:11:35;;;;;;;4.60;1.20;;;14.20;99.90;;;;;;4778227;29;20067;-64
2022/09/25 09:14:08;;;;;;;4.25;1.13;;;14.20;99.90;;;;;;4774308;30;20059;-68
2022/09/25 09:16:45;;;;;;;3.43;1.00;;;14.20;99.90;;;;;;4779704;29;20350;-66
2022/09/25 09:19:11;;;;;;;4.38;1.38;;;14.10;99.90;;;;;;4780763;30;20054;-66
2022/09/25 09:21:41;;;;;;;2.05;0.95;;;14.10;99.90;;;;;;4765191;29;20066;-66
2022/09/25 09:24:36;;;;;;;4.75;1.50;;;14.10;99.90;;;;;;4787955;29;20051;-66
2022/09/25 09:27:03;;;;;;;4.95;1.25;;;14.00;99.90;;;;;;4800307;29;20070;-68
2022/09/25 09:29:55;;;;;;;6.18;1.48;;;13.90;99.90;;;;;;4775633;30;20083;-66
2022/09/25 09:32:41;;;;;;;3.15;1.30;;;13.90;99.90;;;;;;4778430;29;20452;-66
2022/09/25 09:35:36;;;;;;;6.03;1.50;;;13.70;99.90;;;;;;4778087;29;20472;-66
2022/09/25 09:38:20;;;;;;;2.10;1.20;;;13.60;99.90;;;;;;4769639;29;20059;-66
2022/09/25 09:40:47;;;;;;;;;;;13.60;99.90;;;;;;4779718;30;20059;-66
2022/09/25 09:43:30;;;;;;;;;;;13.60;99.90;;;;;;4775284;30;19943;-65
2022/09/25 09:46:02;;;;;;;;;;;13.60;99.90;;;;;;4779835;29;19925;-66
2022/09/25 09:48:27;;;;;;;;;;;13.70;99.90;;;;;;4782323;30;20001;-66
2022/09/25 09:50:56;;;;;;;;;;;13.70;99.90;;;;;;4773728;29;20376;-66
2022/09/25 09:54:00;;;;;;;;;;;13.70;99.90;;;;;;4762981;30;19933;-67
2022/09/25 09:56:30;;;;;;;;;;;13.90;99.90;;;;;;4803987;29;20541;-66
2022/09/25 09:58:58;;;;;;;;;;;14.10;99.90;;;;;;4818384;29;20383;-68
2022/09/25 10:01:25;;;;;;;;;;;14.30;99.90;;;;;;4778541;29;19937;-65
2022/09/25 10:04:05;;;;;;;;;;;14.40;99.90;;;;;;4770987;29;20384;-66
2022/09/25 10:06:34;;;;;;;;;;;14.60;99.90;;;;;;4758901;30;19971;-66
2022/09/25 10:09:00;;;;;;;;;;;14.80;99.90;;;;;;4756817;30;19973;-66
2022/09/25 10:11:27;;;;;;;;;;;15.00;99.90;;;;;;4759259;30;19976;-65
2022/09/25 10:13:55;;;;;;;;;;;15.20;99.90;;;;;;4756568;30;20021;-65
2022/09/25 10:16:21;;;;;;;;;;;15.30;99.90;;;;;;4753376;30;20487;-65
2022/09/25 10:18:47;;;;;;;;;;;15.50;99.90;;;;;;4763517;30;19980;-65
2022/09/25 10:21:15;;;;;;;;;;;15.50;99.90;;;;;;4781673;30;19964;-63
2022/09/25 10:23:47;;;;;;;;;;;15.60;99.90;;;;;;4752085;30;19934;-63
2022/09/25 10:26:24;;;;;;;;;;;15.70;99.90;;;;;;4751841;30;19972;-66
2022/09/25 10:28:50;;;;;;;;;;;15.70;99.90;;;;;;4756462;30;19926;-64
2022/09/25 10:31:16;;;;;;;;;;;15.80;99.90;;;;;;4757696;30;20448;-63
2022/09/25 10:33:56;;;;;;;;;;;15.90;99.90;;;;;;4757601;30;19981;-65
2022/09/25 10:36:29;;;;;;;;;;;16.00;99.90;;;;;;4760837;30;20314;-65
2022/09/25 10:38:55;;;;;;;;;;;16.20;99.90;;;;;;4767671;30;19926;-65
2022/09/25 10:41:21;;;;;;;;;;;16.40;99.90;;;;;;4742523;30;19925;-65
2022/09/25 10:43:52;;;;;;;;;;;16.40;99.90;;;;;;4784724;29;19929;-64
2022/09/25 10:52:08;;;;;;;;;;;16.50;99.90;;;;;;4765584;30;20023;-65
2022/09/25 10:54:34;;;;;;;;;;;16.70;99.90;;;;;;4767406;30;20644;-65
2022/09/25 10:57:01;;;;;;;;;;;16.70;99.90;;;;;;4765760;30;20016;-66
2022/09/25 10:59:27;;;;;;;;;;;16.70;99.90;;;;;;4771636;30;19933;-65
2022/09/25 11:01:54;;;;;;;0.70;0.50;;;16.60;99.90;;;;;;4771929;30;19937;-65
2022/09/25 11:04:30;;;;;;;;;;;16.70;99.90;;;;;;4774094;30;19930;-65
2022/09/25 11:06:58;;;;;;;;;;;16.60;99.90;;;;;;4773307;30;20353;-65
2022/09/25 11:09:25;;;;;;;;;;;16.60;99.90;;;;;;4774801;30;19933;-65
2022/09/25 11:11:52;;;;;;;;;;;16.60;99.90;;;;;;4769823;29;19977;-66
2022/09/25 11:14:37;;;;;;;;;;;16.70;99.90;;;;;;4768273;30;19934;-67
2022/09/25 11:17:08;;;;;;;;;;;16.70;99.90;;;;;;4772601;30;19934;-65
2022/09/25 11:19:35;;;;;;;;;;;16.70;99.90;;;;;;4770315;29;20344;-66
2022/09/25 11:22:09;;;;;;;;;;;16.80;99.90;;;;;;4778599;29;19960;-66
2022/09/25 11:24:55;;;;;;;;;;;16.80;99.90;;;;;;4775736;30;19934;-66
2022/09/25 11:27:33;;;;;;;;;;;16.90;99.90;;;;;;4776874;30;20400;-67
2022/09/25 11:30:11;;;;;;;3.40;1.20;;;16.90;99.90;;;;;;4776839;30;20434;-64
2022/09/25 11:33:01;;;;;;;3.15;1.00;;;17.10;99.90;;;;;;4769121;30;20414;-63
2022/09/25 11:35:35;;;;;;;4.05;0.80;;;17.20;99.90;;;;;;4759204;29;20055;-64
2022/09/25 11:38:04;;;;;;;;;;;17.30;99.90;;;;;;4774741;30;20126;-64
2022/09/25 11:43:56;;;;;;;;;;;17.30;99.90;;;;;;4784789;30;19925;-63
2022/09/25 11:46:22;;;;;;;;;;;17.20;99.90;;;;;;4777937;30;20025;-67
2022/09/25 11:48:53;;;;;;;;;;;17.20;99.90;;;;;;4775065;30;19973;-64
2022/09/25 11:51:27;;;;;;;;;;;17.30;99.90;;;;;;4769360;30;19938;-66
2022/09/25 11:53:53;;;;;;;;;;;17.30;99.90;;;;;;4769798;30;19930;-63
2022/09/25 11:56:30;;;;;;;;;;;17.30;99.90;;;;;;4768541;30;19929;-64
2022/09/25 11:59:03;;;;;;;;;;;17.30;99.90;;;;;;4767428;30;20041;-64
2022/09/25 12:01:42;;;;;;;;;;;17.30;99.90;;;;;;4767959;30;20354;-64
2022/09/25 12:04:14;;;;;;;;;;;17.20;99.90;;;;;;4767206;30;19926;-64
2022/09/25 12:06:44;;;;;;;;;;;17.20;99.90;;;;;;4771311;30;19925;-64
2022/09/25 12:09:28;;;;;;;;;;;17.30;99.90;;;;;;4784951;29;19940;-64
2022/09/25 12:11:53;;;;;;;;;;;17.20;99.90;;;;;;4769203;30;19934;-64
2022/09/25 12:14:24;;;;;;;;;;;17.00;99.90;;;;;;4765000;30;19929;-65
2022/09/25 12:17:06;;;;;;;;;;;16.80;99.90;;;;;;4778440;30;20495;-64
2022/09/25 12:19:41;;;;;;;;;;;16.80;99.90;;;;;;4777150;30;20371;-64
2022/09/25 12:22:15;;;;;;;;;;;16.70;99.90;;;;;;4771539;30;20375;-65
2022/09/25 12:24:44;;;;;;;;;;;16.50;99.90;;;;;;4766188;30;19935;-65
2022/09/25 12:27:19;;;;;;;;;;;16.50;99.90;;;;;;4781450;29;19933;-64
2022/09/25 12:29:48;;;;;;;;;;;16.50;99.90;;;;;;4766138;30;20305;-64
2022/09/25 12:32:14;;;;;;;;;;;16.60;99.90;;;;;;4783791;29;20384;-65
2022/09/25 12:34:49;;;;;;;;;;;16.70;99.90;;;;;;4780555;30;19929;-65
2022/09/25 12:37:20;;;;;;;;;;;16.70;99.90;;;;;;4794271;29;19925;-65
2022/09/25 12:39:48;;;;;;;;;;;16.80;99.90;;;;;;4782550;29;19929;-63
2022/09/25 12:42:18;;;;;;;;;;;16.80;99.90;;;;;;4780795;30;19983;-64
2022/09/25 12:44:56;;;;;;;;;;;16.90;99.90;;;;;;4783303;29;21424;-65
2022/09/25 12:47:49;;;;;;;;;;;16.90;99.90;;;;;;4779928;29;19934;-64
2022/09/25 12:50:24;;;;;;;;;;;16.90;99.90;;;;;;4782894;29;20038;-64
2022/09/25 12:52:57;;;;;;;;;;;16.80;99.90;;;;;;4768961;30;20565;-64
2022/09/25 12:55:25;;;;;;;;;;;16.90;99.90;;;;;;4766753;30;19975;-64
2022/09/25 12:57:54;;;;;;;;;;;16.90;99.90;;;;;;4780946;30;20050;-65
2022/09/25 13:00:20;;;;;;;;;;;16.90;99.90;;;;;;4752118;30;20387;-64
2022/09/25 13:02:53;;;;;;;;;;;16.80;99.90;;;;;;4766789;30;19966;-63
2022/09/25 13:05:22;;;;;;;;;;;16.90;99.90;;;;;;4768008;30;19933;-65
2022/09/25 13:08:09;;;;;;;;;;;16.90;99.90;;;;;;4766105;30;20109;-64
2022/09/25 13:10:40;;;;;;;;;;;16.90;99.90;;;;;;4769194;30;19930;-69
2022/09/25 13:13:25;;;;;;;;;;;16.90;99.90;;;;;;4765521;30;19945;-66
2022/09/25 13:15:53;;;;;;;;;;;17.00;99.70;;;;;;4774102;30;19986;-63
2022/09/25 13:18:23;;;;;;;;;;;17.00;99.90;;;;;;4784133;29;19934;-64
2022/09/25 13:20:53;;;;;;;;;;;16.90;99.60;;;;;;4766572;30;20435;-65
2022/09/25 13:23:27;;;;;;;;;;;16.90;99.90;;;;;;4778234;30;19934;-63
2022/09/25 13:25:59;;;;;;;;;;;16.90;99.60;;;;;;4770349;30;19980;-64
2022/09/25 13:28:26;;;;;;;;;;;16.90;99.90;;;;;;4773261;30;19937;-63
2022/09/25 13:30:59;;;;;;;;;;;17.00;99.90;;;;;;4767316;30;19934;-65
2022/09/25 13:33:25;;;;;;;;;;;17.00;99.90;;;;;;4765961;30;20284;-65
2022/09/25 13:36:04;;;;;;;;;;;17.10;99.80;;;;;;4747232;30;19934;-68
2022/09/25 13:41:15;;;;;;;;;;;16.90;99.60;;;;;;4779668;29;20423;-67
2022/09/25 13:43:40;;;;;;;;;;;16.70;99.70;;;;;;4774002;30;19937;-69
2022/09/25 13:46:16;;;;;;;;;;;16.60;99.90;;;;;;4763343;30;19937;-67
2022/09/25 13:48:42;;;;;;;;;;;16.60;99.90;;;;;;4768655;30;19940;-70
2022/09/25 13:51:17;;;;;;;;;;;16.70;99.90;;;;;;4765183;30;19930;-66
2022/09/25 13:53:59;;;;;;;;;;;16.70;99.90;;;;;;4780205;30;20384;-68
2022/09/25 13:56:25;;;;;;;;;;;16.80;99.90;;;;;;4767106;30;19938;-66
2022/09/25 13:59:06;;;;;;;;;;;16.90;99.90;;;;;;4763555;30;19930;-67
2022/09/25 14:01:40;;;;;;;;;;;16.90;99.90;;;;;;4769045;30;19930;-66